KCEY/CEY METAR and TAF weather

Enter ICAO airport designator
Station Type Date Time Source
KCEY METAR 2020/11/28 20:15 UTC NOAA

KCEY 282015Z AUTO 03004KT 10SM CLR 10/M03 A3018 RMK AO1


Station Type Date Time Source
KCEY Decoded METAR 2020/11/28 20:15 UTC NOAA

Station name not available
Nov 28, 2020 - 03:15 PM EST / 2020.11.28 2015 UTC
Wind: from the NNE (030 degrees) at 5 MPH (4 KT):0
Visibility: 10 mile(s):0
Sky conditions: clear
Temperature: 50 F (10 C)
Dew Point: 26 F (-3 C)
Relative Humidity: 39%
Pressure (altimeter): 30.18 in. Hg (1022 hPa)
ob: KCEY 282015Z AUTO 03004KT 10SM CLR 10/M03 A3018 RMK AO1
cycle: 20

Station Type Date Time Source
KCEY TAF UTC NOAA

Error!

Example: see airport list